sensor_id;sensor_type;location;lat;lon;timestamp;P1;durP1;ratioP1;P2;durP2;ratioP2
4317;SDS011;2172;53.576;9.934;2023-05-10T00:00:12;7.40;;;5.30;;
4317;SDS011;2172;53.576;9.934;2023-05-10T00:02:41;8.43;;;5.27;;
4317;SDS011;2172;53.576;9.934;2023-05-10T00:05:08;7.93;;;5.70;;
4317;SDS011;2172;53.576;9.934;2023-05-10T00:07:36;5.70;;;5.20;;
4317;SDS011;2172;53.576;9.934;2023-05-10T00:10:04;6.90;;;5.30;;
4317;SDS011;2172;53.576;9.934;2023-05-10T00:12:32;5.83;;;5.20;;
4317;SDS011;2172;53.576;9.934;2023-05-10T00:15:01;5.97;;;5.13;;
4317;SDS011;2172;53.576;9.934;2023-05-10T00:17:29;8.60;;;5.30;;
4317;SDS011;2172;53.576;9.934;2023-05-10T00:19:56;8.80;;;5.10;;
4317;SDS011;2172;53.576;9.934;2023-05-10T00:22:24;6.97;;;5.40;;
4317;SDS011;2172;53.576;9.934;2023-05-10T00:24:51;7.10;;;5.40;;
4317;SDS011;2172;53.576;9.934;2023-05-10T00:27:19;7.20;;;5.50;;
4317;SDS011;2172;53.576;9.934;2023-05-10T00:29:46;7.67;;;5.90;;
4317;SDS011;2172;53.576;9.934;2023-05-10T00:32:15;6.87;;;5.30;;
4317;SDS011;2172;53.576;9.934;2023-05-10T00:34:42;7.37;;;6.37;;
4317;SDS011;2172;53.576;9.934;2023-05-10T00:37:10;7.33;;;5.90;;
4317;SDS011;2172;53.576;9.934;2023-05-10T00:39:38;7.53;;;5.57;;
4317;SDS011;2172;53.576;9.934;2023-05-10T00:42:05;6.60;;;5.60;;
4317;SDS011;2172;53.576;9.934;2023-05-10T00:44:33;8.50;;;6.70;;
4317;SDS011;2172;53.576;9.934;2023-05-10T00:47:01;7.40;;;5.80;;
4317;SDS011;2172;53.576;9.934;2023-05-10T00:49:30;7.07;;;5.70;;
4317;SDS011;2172;53.576;9.934;2023-05-10T00:51:57;6.60;;;5.70;;
4317;SDS011;2172;53.576;9.934;2023-05-10T00:54:25;7.57;;;5.70;;
4317;SDS011;2172;53.576;9.934;2023-05-10T00:56:53;12.77;;;6.60;;
4317;SDS011;2172;53.576;9.934;2023-05-10T00:59:22;6.60;;;5.37;;
4317;SDS011;2172;53.576;9.934;2023-05-10T01:01:49;6.70;;;5.97;;
4317;SDS011;2172;53.576;9.934;2023-05-10T01:04:17;10.60;;;6.73;;
4317;SDS011;2172;53.576;9.934;2023-05-10T01:06:46;7.63;;;6.13;;
4317;SDS011;2172;53.576;9.934;2023-05-10T01:09:14;7.00;;;6.30;;
4317;SDS011;2172;53.576;9.934;2023-05-10T01:11:41;7.30;;;6.00;;
4317;SDS011;2172;53.576;9.934;2023-05-10T01:14:09;8.13;;;6.40;;
4317;SDS011;2172;53.576;9.934;2023-05-10T01:16:37;6.60;;;5.90;;
4317;SDS011;2172;53.576;9.934;2023-05-10T01:19:06;6.97;;;5.83;;
4317;SDS011;2172;53.576;9.934;2023-05-10T01:21:48;6.50;;;5.90;;
4317;SDS011;2172;53.576;9.934;2023-05-10T01:27:25;7.30;;;5.83;;
4317;SDS011;2172;53.576;9.934;2023-05-10T01:33:15;9.93;;;6.50;;
4317;SDS011;2172;53.576;9.934;2023-05-10T01:35:47;6.37;;;5.87;;
4317;SDS011;2172;53.576;9.934;2023-05-10T01:38:19;6.97;;;6.30;;
4317;SDS011;2172;53.576;9.934;2023-05-10T01:40:55;9.33;;;6.53;;
4317;SDS011;2172;53.576;9.934;2023-05-10T01:43:32;5.83;;;5.33;;
4317;SDS011;2172;53.576;9.934;2023-05-10T01:46:03;8.73;;;6.20;;
4317;SDS011;2172;53.576;9.934;2023-05-10T01:48:37;6.30;;;5.37;;
4317;SDS011;2172;53.576;9.934;2023-05-10T01:51:12;9.23;;;7.17;;
4317;SDS011;2172;53.576;9.934;2023-05-10T01:53:40;8.40;;;6.00;;
4317;SDS011;2172;53.576;9.934;2023-05-10T01:56:09;6.73;;;5.97;;
4317;SDS011;2172;53.576;9.934;2023-05-10T01:58:38;7.00;;;6.23;;
4317;SDS011;2172;53.576;9.934;2023-05-10T02:01:07;6.80;;;5.97;;
4317;SDS011;2172;53.576;9.934;2023-05-10T02:03:35;6.30;;;5.57;;
4317;SDS011;2172;53.576;9.934;2023-05-10T02:06:05;8.70;;;5.73;;
4317;SDS011;2172;53.576;9.934;2023-05-10T02:08:32;6.30;;;5.70;;
4317;SDS011;2172;53.576;9.934;2023-05-10T02:11:02;6.90;;;6.00;;
4317;SDS011;2172;53.576;9.934;2023-05-10T02:13:31;7.83;;;6.37;;
4317;SDS011;2172;53.576;9.934;2023-05-10T02:16:00;8.03;;;6.27;;
4317;SDS011;2172;53.576;9.934;2023-05-10T02:18:28;7.97;;;5.80;;
4317;SDS011;2172;53.576;9.934;2023-05-10T02:20:58;6.63;;;5.53;;
4317;SDS011;2172;53.576;9.934;2023-05-10T02:23:26;8.23;;;6.30;;
4317;SDS011;2172;53.576;9.934;2023-05-10T02:25:56;8.97;;;6.50;;
4317;SDS011;2172;53.576;9.934;2023-05-10T02:28:24;8.83;;;6.30;;
4317;SDS011;2172;53.576;9.934;2023-05-10T02:30:52;6.70;;;6.10;;
4317;SDS011;2172;53.576;9.934;2023-05-10T02:33:20;6.90;;;6.17;;
4317;SDS011;2172;53.576;9.934;2023-05-10T02:35:51;7.33;;;6.00;;
4317;SDS011;2172;53.576;9.934;2023-05-10T02:38:20;7.57;;;6.77;;
4317;SDS011;2172;53.576;9.934;2023-05-10T02:40:49;7.07;;;5.80;;
4317;SDS011;2172;53.576;9.934;2023-05-10T02:43:18;7.40;;;6.70;;
4317;SDS011;2172;53.576;9.934;2023-05-10T02:45:46;6.60;;;5.40;;
4317;SDS011;2172;53.576;9.934;2023-05-10T02:48:14;6.87;;;5.77;;
4317;SDS011;2172;53.576;9.934;2023-05-10T02:50:42;7.30;;;6.43;;
4317;SDS011;2172;53.576;9.934;2023-05-10T02:53:14;7.53;;;6.37;;
4317;SDS011;2172;53.576;9.934;2023-05-10T02:55:48;6.00;;;5.50;;
4317;SDS011;2172;53.576;9.934;2023-05-10T02:58:17;6.60;;;5.90;;
4317;SDS011;2172;53.576;9.934;2023-05-10T03:00:45;9.17;;;6.30;;
4317;SDS011;2172;53.576;9.934;2023-05-10T03:03:13;7.63;;;6.20;;
4317;SDS011;2172;53.576;9.934;2023-05-10T03:05:40;9.30;;;6.37;;
4317;SDS011;2172;53.576;9.934;2023-05-10T03:08:08;6.87;;;6.10;;
4317;SDS011;2172;53.576;9.934;2023-05-10T03:10:38;7.40;;;6.50;;
4317;SDS011;2172;53.576;9.934;2023-05-10T03:13:13;7.83;;;6.47;;
4317;SDS011;2172;53.576;9.934;2023-05-10T03:15:47;8.27;;;6.70;;
4317;SDS011;2172;53.576;9.934;2023-05-10T03:18:22;6.63;;;6.10;;
4317;SDS011;2172;53.576;9.934;2023-05-10T03:20:56;7.40;;;6.10;;
4317;SDS011;2172;53.576;9.934;2023-05-10T03:23:27;7.27;;;6.17;;
4317;SDS011;2172;53.576;9.934;2023-05-10T03:25:57;8.17;;;6.70;;
4317;SDS011;2172;53.576;9.934;2023-05-10T03:28:26;6.70;;;5.90;;
4317;SDS011;2172;53.576;9.934;2023-05-10T03:30:54;10.47;;;6.20;;
4317;SDS011;2172;53.576;9.934;2023-05-10T03:33:22;8.30;;;7.13;;
4317;SDS011;2172;53.576;9.934;2023-05-10T03:35:50;7.40;;;6.70;;
4317;SDS011;2172;53.576;9.934;2023-05-10T03:38:17;8.13;;;6.87;;
4317;SDS011;2172;53.576;9.934;2023-05-10T03:40:45;8.57;;;6.23;;
4317;SDS011;2172;53.576;9.934;2023-05-10T03:43:13;6.50;;;5.93;;
4317;SDS011;2172;53.576;9.934;2023-05-10T03:45:42;12.17;;;6.60;;
4317;SDS011;2172;53.576;9.934;2023-05-10T03:48:10;7.73;;;6.93;;
4317;SDS011;2172;53.576;9.934;2023-05-10T03:50:40;7.10;;;6.40;;
4317;SDS011;2172;53.576;9.934;2023-05-10T03:53:08;6.67;;;6.07;;
4317;SDS011;2172;53.576;9.934;2023-05-10T03:55:35;6.80;;;6.10;;
4317;SDS011;2172;53.576;9.934;2023-05-10T03:58:03;11.80;;;6.70;;
4317;SDS011;2172;53.576;9.934;2023-05-10T04:00:33;7.90;;;6.57;;
4317;SDS011;2172;53.576;9.934;2023-05-10T04:03:03;6.97;;;6.13;;
4317;SDS011;2172;53.576;9.934;2023-05-10T04:05:30;7.20;;;6.40;;
4317;SDS011;2172;53.576;9.934;2023-05-10T04:07:58;10.10;;;7.67;;
4317;SDS011;2172;53.576;9.934;2023-05-10T04:10:25;7.53;;;6.73;;
4317;SDS011;2172;53.576;9.934;2023-05-10T04:12:54;10.50;;;7.57;;
4317;SDS011;2172;53.576;9.934;2023-05-10T04:15:21;11.17;;;7.47;;
4317;SDS011;2172;53.576;9.934;2023-05-10T04:17:49;7.30;;;6.70;;
4317;SDS011;2172;53.576;9.934;2023-05-10T04:20:18;8.30;;;6.40;;
4317;SDS011;2172;53.576;9.934;2023-05-10T04:22:46;8.00;;;6.80;;
4317;SDS011;2172;53.576;9.934;2023-05-10T04:25:13;8.50;;;5.97;;
4317;SDS011;2172;53.576;9.934;2023-05-10T04:27:41;7.13;;;6.53;;
4317;SDS011;2172;53.576;9.934;2023-05-10T04:30:09;7.23;;;6.53;;
4317;SDS011;2172;53.576;9.934;2023-05-10T04:32:37;9.33;;;7.10;;
4317;SDS011;2172;53.576;9.934;2023-05-10T04:35:04;6.87;;;5.70;;
4317;SDS011;2172;53.576;9.934;2023-05-10T04:37:35;7.23;;;6.53;;
4317;SDS011;2172;53.576;9.934;2023-05-10T04:40:03;7.87;;;6.93;;
4317;SDS011;2172;53.576;9.934;2023-05-10T04:42:32;9.00;;;7.00;;
4317;SDS011;2172;53.576;9.934;2023-05-10T04:44:59;8.00;;;7.20;;
4317;SDS011;2172;53.576;9.934;2023-05-10T04:47:27;7.07;;;6.47;;
4317;SDS011;2172;53.576;9.934;2023-05-10T04:49:54;8.30;;;7.40;;
4317;SDS011;2172;53.576;9.934;2023-05-10T04:52:22;8.27;;;6.90;;
4317;SDS011;2172;53.576;9.934;2023-05-10T04:54:51;7.57;;;6.70;;
4317;SDS011;2172;53.576;9.934;2023-05-10T04:57:18;12.53;;;6.97;;
4317;SDS011;2172;53.576;9.934;2023-05-10T04:59:46;7.53;;;6.73;;
4317;SDS011;2172;53.576;9.934;2023-05-10T05:02:13;7.13;;;6.50;;
4317;SDS011;2172;53.576;9.934;2023-05-10T05:04:41;10.57;;;7.03;;
4317;SDS011;2172;53.576;9.934;2023-05-10T05:07:09;8.10;;;7.30;;
4317;SDS011;2172;53.576;9.934;2023-05-10T05:09:37;9.67;;;6.80;;
4317;SDS011;2172;53.576;9.934;2023-05-10T05:12:06;9.53;;;6.63;;
4317;SDS011;2172;53.576;9.934;2023-05-10T05:14:38;8.10;;;6.30;;
4317;SDS011;2172;53.576;9.934;2023-05-10T05:17:06;10.97;;;6.80;;
4317;SDS011;2172;53.576;9.934;2023-05-10T05:19:34;10.23;;;7.50;;
4317;SDS011;2172;53.576;9.934;2023-05-10T05:22:02;8.00;;;6.90;;
4317;SDS011;2172;53.576;9.934;2023-05-10T05:24:34;8.80;;;7.10;;
4317;SDS011;2172;53.576;9.934;2023-05-10T05:27:03;9.50;;;7.23;;
4317;SDS011;2172;53.576;9.934;2023-05-10T05:29:32;8.83;;;6.80;;
4317;SDS011;2172;53.576;9.934;2023-05-10T05:32:00;18.60;;;7.40;;
4317;SDS011;2172;53.576;9.934;2023-05-10T05:34:29;7.27;;;6.53;;
4317;SDS011;2172;53.576;9.934;2023-05-10T05:36:56;8.73;;;7.27;;
4317;SDS011;2172;53.576;9.934;2023-05-10T05:39:27;8.53;;;6.57;;
4317;SDS011;2172;53.576;9.934;2023-05-10T05:41:54;9.67;;;7.27;;
4317;SDS011;2172;53.576;9.934;2023-05-10T05:44:23;11.80;;;6.73;;
4317;SDS011;2172;53.576;9.934;2023-05-10T05:46:52;7.83;;;7.10;;
4317;SDS011;2172;53.576;9.934;2023-05-10T05:49:19;14.10;;;8.00;;
4317;SDS011;2172;53.576;9.934;2023-05-10T05:51:47;8.60;;;6.97;;
4317;SDS011;2172;53.576;9.934;2023-05-10T05:54:14;12.20;;;7.73;;
4317;SDS011;2172;53.576;9.934;2023-05-10T05:56:42;9.20;;;7.40;;
4317;SDS011;2172;53.576;9.934;2023-05-10T05:59:09;9.83;;;7.00;;
4317;SDS011;2172;53.576;9.934;2023-05-10T06:01:38;11.30;;;7.60;;
4317;SDS011;2172;53.576;9.934;2023-05-10T06:04:06;8.33;;;7.30;;
4317;SDS011;2172;53.576;9.934;2023-05-10T06:06:52;8.20;;;7.40;;
4317;SDS011;2172;53.576;9.934;2023-05-10T06:09:20;8.40;;;7.13;;
4317;SDS011;2172;53.576;9.934;2023-05-10T06:11:48;8.47;;;7.60;;
4317;SDS011;2172;53.576;9.934;2023-05-10T06:14:16;10.33;;;7.23;;
4317;SDS011;2172;53.576;9.934;2023-05-10T06:16:45;7.30;;;6.60;;
4317;SDS011;2172;53.576;9.934;2023-05-10T06:19:12;7.77;;;6.80;;
4317;SDS011;2172;53.576;9.934;2023-05-10T06:21:40;9.50;;;7.20;;
4317;SDS011;2172;53.576;9.934;2023-05-10T06:24:07;9.60;;;6.20;;
4317;SDS011;2172;53.576;9.934;2023-05-10T06:26:35;10.20;;;6.60;;
4317;SDS011;2172;53.576;9.934;2023-05-10T06:29:02;10.10;;;6.93;;
4317;SDS011;2172;53.576;9.934;2023-05-10T06:31:33;13.40;;;8.30;;
4317;SDS011;2172;53.576;9.934;2023-05-10T06:34:02;10.70;;;7.13;;
4317;SDS011;2172;53.576;9.934;2023-05-10T06:36:29;9.03;;;7.20;;
4317;SDS011;2172;53.576;9.934;2023-05-10T06:38:56;8.87;;;7.90;;
4317;SDS011;2172;53.576;9.934;2023-05-10T06:41:24;11.73;;;7.23;;
4317;SDS011;2172;53.576;9.934;2023-05-10T06:43:52;7.80;;;7.10;;
4317;SDS011;2172;53.576;9.934;2023-05-10T06:46:19;8.90;;;6.63;;
4317;SDS011;2172;53.576;9.934;2023-05-10T06:48:47;10.17;;;6.83;;
4317;SDS011;2172;53.576;9.934;2023-05-10T06:51:16;10.33;;;7.27;;
4317;SDS011;2172;53.576;9.934;2023-05-10T06:53:43;7.40;;;6.70;;
4317;SDS011;2172;53.576;9.934;2023-05-10T06:56:11;9.53;;;7.23;;
4317;SDS011;2172;53.576;9.934;2023-05-10T06:58:39;7.73;;;7.03;;
4317;SDS011;2172;53.576;9.934;2023-05-10T07:01:07;7.60;;;6.80;;
4317;SDS011;2172;53.576;9.934;2023-05-10T07:03:34;9.33;;;7.30;;
4317;SDS011;2172;53.576;9.934;2023-05-10T07:06:02;7.33;;;6.60;;
4317;SDS011;2172;53.576;9.934;2023-05-10T07:08:33;9.23;;;7.30;;
4317;SDS011;2172;53.576;9.934;2023-05-10T07:11:01;13.00;;;7.23;;
4317;SDS011;2172;53.576;9.934;2023-05-10T07:13:30;9.33;;;6.93;;
4317;SDS011;2172;53.576;9.934;2023-05-10T07:15:57;8.83;;;7.90;;
4317;SDS011;2172;53.576;9.934;2023-05-10T07:18:25;7.70;;;6.80;;
4317;SDS011;2172;53.576;9.934;2023-05-10T07:20:53;8.67;;;7.10;;
4317;SDS011;2172;53.576;9.934;2023-05-10T07:23:20;7.47;;;6.80;;
4317;SDS011;2172;53.576;9.934;2023-05-10T07:25:52;7.50;;;6.80;;
4317;SDS011;2172;53.576;9.934;2023-05-10T07:28:20;13.80;;;7.70;;
4317;SDS011;2172;53.576;9.934;2023-05-10T07:30:47;11.63;;;7.37;;
4317;SDS011;2172;53.576;9.934;2023-05-10T07:33:15;10.40;;;7.10;;
4317;SDS011;2172;53.576;9.934;2023-05-10T07:35:43;8.33;;;6.30;;
4317;SDS011;2172;53.576;9.934;2023-05-10T07:38:10;8.23;;;6.80;;
4317;SDS011;2172;53.576;9.934;2023-05-10T07:40:38;8.50;;;6.80;;
4317;SDS011;2172;53.576;9.934;2023-05-10T07:43:07;7.20;;;6.47;;
4317;SDS011;2172;53.576;9.934;2023-05-10T07:45:35;7.33;;;6.60;;
4317;SDS011;2172;53.576;9.934;2023-05-10T07:48:02;7.50;;;5.90;;
4317;SDS011;2172;53.576;9.934;2023-05-10T07:50:30;8.70;;;6.77;;
4317;SDS011;2172;53.576;9.934;2023-05-10T07:52:57;7.70;;;6.90;;
4317;SDS011;2172;53.576;9.934;2023-05-10T07:55:25;8.30;;;6.37;;
4317;SDS011;2172;53.576;9.934;2023-05-10T07:57:52;7.90;;;7.10;;
4317;SDS011;2172;53.576;9.934;2023-05-10T08:00:21;7.87;;;7.07;;
4317;SDS011;2172;53.576;9.934;2023-05-10T08:02:49;11.00;;;6.90;;
4317;SDS011;2172;53.576;9.934;2023-05-10T08:05:16;6.97;;;6.37;;
4317;SDS011;2172;53.576;9.934;2023-05-10T08:07:44;9.73;;;7.57;;
4317;SDS011;2172;53.576;9.934;2023-05-10T08:10:11;9.27;;;7.80;;
4317;SDS011;2172;53.576;9.934;2023-05-10T08:12:39;12.43;;;7.50;;
4317;SDS011;2172;53.576;9.934;2023-05-10T08:15:07;8.80;;;6.77;;
4317;SDS011;2172;53.576;9.934;2023-05-10T08:17:37;7.20;;;6.50;;
4317;SDS011;2172;53.576;9.934;2023-05-10T08:20:06;10.00;;;7.27;;
4317;SDS011;2172;53.576;9.934;2023-05-10T08:22:33;9.57;;;6.70;;
4317;SDS011;2172;53.576;9.934;2023-05-10T08:25:01;12.63;;;7.10;;
4317;SDS011;2172;53.576;9.934;2023-05-10T08:27:29;8.30;;;7.43;;
4317;SDS011;2172;53.576;9.934;2023-05-10T08:29:56;9.27;;;6.90;;
4317;SDS011;2172;53.576;9.934;2023-05-10T08:32:24;9.83;;;7.50;;
4317;SDS011;2172;53.576;9.934;2023-05-10T08:34:53;9.67;;;7.20;;
4317;SDS011;2172;53.576;9.934;2023-05-10T08:37:21;9.30;;;7.23;;
4317;SDS011;2172;53.576;9.934;2023-05-10T08:39:51;8.10;;;7.23;;
4317;SDS011;2172;53.576;9.934;2023-05-10T08:42:19;8.40;;;7.60;;
4317;SDS011;2172;53.576;9.934;2023-05-10T08:44:50;8.60;;;7.33;;
4317;SDS011;2172;53.576;9.934;2023-05-10T08:47:18;9.00;;;7.33;;
4317;SDS011;2172;53.576;9.934;2023-05-10T08:49:47;10.63;;;8.23;;
4317;SDS011;2172;53.576;9.934;2023-05-10T08:52:18;9.40;;;8.30;;
4317;SDS011;2172;53.576;9.934;2023-05-10T08:54:45;9.03;;;8.23;;
4317;SDS011;2172;53.576;9.934;2023-05-10T08:57:13;9.60;;;8.70;;
4317;SDS011;2172;53.576;9.934;2023-05-10T08:59:41;11.73;;;8.60;;
4317;SDS011;2172;53.576;9.934;2023-05-10T09:02:09;9.73;;;7.67;;
4317;SDS011;2172;53.576;9.934;2023-05-10T09:04:37;10.43;;;8.47;;
4317;SDS011;2172;53.576;9.934;2023-05-10T09:07:05;12.20;;;8.20;;
4317;SDS011;2172;53.576;9.934;2023-05-10T09:09:34;8.67;;;7.87;;
4317;SDS011;2172;53.576;9.934;2023-05-10T09:12:02;9.60;;;8.60;;
4317;SDS011;2172;53.576;9.934;2023-05-10T09:14:30;8.90;;;7.50;;
4317;SDS011;2172;53.576;9.934;2023-05-10T09:17:01;9.33;;;8.37;;
4317;SDS011;2172;53.576;9.934;2023-05-10T09:19:28;10.77;;;8.90;;
4317;SDS011;2172;53.576;9.934;2023-05-10T09:21:56;8.87;;;8.07;;
4317;SDS011;2172;53.576;9.934;2023-05-10T09:24:25;12.07;;;8.60;;
4317;SDS011;2172;53.576;9.934;2023-05-10T09:26:54;11.00;;;9.47;;
4317;SDS011;2172;53.576;9.934;2023-05-10T09:29:23;11.27;;;10.10;;
4317;SDS011;2172;53.576;9.934;2023-05-10T09:31:51;10.87;;;9.20;;
4317;SDS011;2172;53.576;9.934;2023-05-10T09:34:20;10.13;;;9.10;;
4317;SDS011;2172;53.576;9.934;2023-05-10T09:36:56;11.30;;;10.07;;
4317;SDS011;2172;53.576;9.934;2023-05-10T09:39:32;9.80;;;8.83;;
4317;SDS011;2172;53.576;9.934;2023-05-10T09:42:03;10.10;;;9.10;;
4317;SDS011;2172;53.576;9.934;2023-05-10T09:44:32;10.13;;;9.03;;
4317;SDS011;2172;53.576;9.934;2023-05-10T09:47:00;10.27;;;9.27;;
4317;SDS011;2172;53.576;9.934;2023-05-10T09:49:29;10.17;;;9.23;;
4317;SDS011;2172;53.576;9.934;2023-05-10T09:52:01;10.30;;;9.37;;
4317;SDS011;2172;53.576;9.934;2023-05-10T09:54:29;13.50;;;10.70;;
4317;SDS011;2172;53.576;9.934;2023-05-10T09:56:57;14.03;;;9.37;;
4317;SDS011;2172;53.576;9.934;2023-05-10T09:59:26;15.20;;;10.90;;
4317;SDS011;2172;53.576;9.934;2023-05-10T10:01:55;11.70;;;10.50;;
4317;SDS011;2172;53.576;9.934;2023-05-10T10:04:23;15.97;;;10.27;;
4317;SDS011;2172;53.576;9.934;2023-05-10T10:07:00;11.03;;;10.00;;
4317;SDS011;2172;53.576;9.934;2023-05-10T10:09:29;11.93;;;10.43;;
4317;SDS011;2172;53.576;9.934;2023-05-10T10:11:56;13.13;;;11.43;;
4317;SDS011;2172;53.576;9.934;2023-05-10T10:14:26;13.97;;;11.50;;
4317;SDS011;2172;53.576;9.934;2023-05-10T10:16:53;13.30;;;11.63;;
4317;SDS011;2172;53.576;9.934;2023-05-10T10:19:21;19.17;;;13.47;;
4317;SDS011;2172;53.576;9.934;2023-05-10T10:21:49;13.90;;;12.40;;
4317;SDS011;2172;53.576;9.934;2023-05-10T10:24:17;12.70;;;11.40;;
4317;SDS011;2172;53.576;9.934;2023-05-10T10:26:44;12.50;;;11.10;;
4317;SDS011;2172;53.576;9.934;2023-05-10T10:29:19;16.10;;;12.87;;
4317;SDS011;2172;53.576;9.934;2023-05-10T10:31:53;13.37;;;11.97;;
4317;SDS011;2172;53.576;9.934;2023-05-10T10:34:25;13.70;;;12.40;;
4317;SDS011;2172;53.576;9.934;2023-05-10T10:36:54;15.00;;;12.97;;
4317;SDS011;2172;53.576;9.934;2023-05-10T10:39:22;14.73;;;13.30;;
4317;SDS011;2172;53.576;9.934;2023-05-10T10:41:51;14.70;;;12.97;;
4317;SDS011;2172;53.576;9.934;2023-05-10T10:44:23;15.07;;;13.30;;
4317;SDS011;2172;53.576;9.934;2023-05-10T10:47:06;15.20;;;12.87;;
4317;SDS011;2172;53.576;9.934;2023-05-10T10:49:42;15.63;;;13.10;;
4317;SDS011;2172;53.576;9.934;2023-05-10T10:52:13;16.20;;;14.33;;
4317;SDS011;2172;53.576;9.934;2023-05-10T10:54:46;18.70;;;14.03;;
4317;SDS011;2172;53.576;9.934;2023-05-10T10:57:22;18.13;;;15.30;;
4317;SDS011;2172;53.576;9.934;2023-05-10T10:59:51;16.33;;;14.17;;
4317;SDS011;2172;53.576;9.934;2023-05-10T11:02:33;16.83;;;14.20;;
4317;SDS011;2172;53.576;9.934;2023-05-10T11:08:16;16.17;;;14.47;;
4317;SDS011;2172;53.576;9.934;2023-05-10T11:10:52;17.57;;;15.77;;
4317;SDS011;2172;53.576;9.934;2023-05-10T11:13:32;16.67;;;14.97;;
4317;SDS011;2172;53.576;9.934;2023-05-10T11:16:11;17.53;;;14.87;;
4317;SDS011;2172;53.576;9.934;2023-05-10T11:18:41;14.80;;;13.30;;
4317;SDS011;2172;53.576;9.934;2023-05-10T11:21:19;16.10;;;14.07;;
4317;SDS011;2172;53.576;9.934;2023-05-10T11:23:47;15.90;;;14.30;;
4317;SDS011;2172;53.576;9.934;2023-05-10T11:26:16;16.27;;;14.70;;
4317;SDS011;2172;53.576;9.934;2023-05-10T11:28:44;16.20;;;14.60;;
4317;SDS011;2172;53.576;9.934;2023-05-10T11:31:13;21.00;;;14.50;;
4317;SDS011;2172;53.576;9.934;2023-05-10T11:33:45;16.30;;;14.70;;
4317;SDS011;2172;53.576;9.934;2023-05-10T11:36:14;18.50;;;15.10;;
4317;SDS011;2172;53.576;9.934;2023-05-10T11:38:42;17.50;;;15.17;;
4317;SDS011;2172;53.576;9.934;2023-05-10T11:41:10;18.03;;;16.23;;
4317;SDS011;2172;53.576;9.934;2023-05-10T11:43:38;16.47;;;14.83;;
4317;SDS011;2172;53.576;9.934;2023-05-10T11:46:06;18.40;;;16.13;;
4317;SDS011;2172;53.576;9.934;2023-05-10T11:48:33;18.57;;;16.67;;
4317;SDS011;2172;53.576;9.934;2023-05-10T11:51:02;18.50;;;16.00;;
4317;SDS011;2172;53.576;9.934;2023-05-10T11:53:31;18.53;;;16.63;;
4317;SDS011;2172;53.576;9.934;2023-05-10T11:56:02;15.63;;;14.00;;
4317;SDS011;2172;53.576;9.934;2023-05-10T11:58:30;17.67;;;15.70;;
4317;SDS011;2172;53.576;9.934;2023-05-10T12:00:58;17.40;;;15.63;;
4317;SDS011;2172;53.576;9.934;2023-05-10T12:03:26;16.17;;;14.57;;
4317;SDS011;2172;53.576;9.934;2023-05-10T12:05:54;16.97;;;15.27;;
4317;SDS011;2172;53.576;9.934;2023-05-10T12:08:25;19.23;;;17.43;;
4317;SDS011;2172;53.576;9.934;2023-05-10T12:10:53;17.73;;;15.93;;
4317;SDS011;2172;53.576;9.934;2023-05-10T12:13:32;15.53;;;13.87;;
4317;SDS011;2172;53.576;9.934;2023-05-10T12:16:13;14.10;;;12.30;;
4317;SDS011;2172;53.576;9.934;2023-05-10T12:18:41;13.47;;;11.33;;
4317;SDS011;2172;53.576;9.934;2023-05-10T12:21:09;13.23;;;12.03;;
4317;SDS011;2172;53.576;9.934;2023-05-10T12:23:39;16.67;;;12.50;;
4317;SDS011;2172;53.576;9.934;2023-05-10T12:26:08;13.53;;;11.57;;
4317;SDS011;2172;53.576;9.934;2023-05-10T12:28:36;12.13;;;10.80;;
4317;SDS011;2172;53.576;9.934;2023-05-10T12:31:05;14.53;;;12.07;;
4317;SDS011;2172;53.576;9.934;2023-05-10T12:33:35;13.40;;;12.10;;
4317;SDS011;2172;53.576;9.934;2023-05-10T12:36:07;13.43;;;12.17;;
4317;SDS011;2172;53.576;9.934;2023-05-10T12:38:35;15.90;;;14.27;;
4317;SDS011;2172;53.576;9.934;2023-05-10T12:41:05;16.73;;;14.60;;
4317;SDS011;2172;53.576;9.934;2023-05-10T12:43:33;16.77;;;15.03;;
4317;SDS011;2172;53.576;9.934;2023-05-10T12:46:05;17.20;;;15.40;;
4317;SDS011;2172;53.576;9.934;2023-05-10T12:48:33;18.07;;;16.17;;
4317;SDS011;2172;53.576;9.934;2023-05-10T12:51:01;16.93;;;15.13;;
4317;SDS011;2172;53.576;9.934;2023-05-10T12:53:29;18.20;;;16.40;;
4317;SDS011;2172;53.576;9.934;2023-05-10T12:55:57;18.03;;;16.27;;
4317;SDS011;2172;53.576;9.934;2023-05-10T12:58:26;17.20;;;15.50;;
4317;SDS011;2172;53.576;9.934;2023-05-10T13:00:53;19.10;;;15.17;;
4317;SDS011;2172;53.576;9.934;2023-05-10T13:03:21;16.17;;;14.57;;
4317;SDS011;2172;53.576;9.934;2023-05-10T13:05:49;16.10;;;14.70;;
4317;SDS011;2172;53.576;9.934;2023-05-10T13:08:16;17.57;;;15.73;;
4317;SDS011;2172;53.576;9.934;2023-05-10T13:10:44;16.83;;;14.53;;
4317;SDS011;2172;53.576;9.934;2023-05-10T13:13:11;14.40;;;13.00;;
4317;SDS011;2172;53.576;9.934;2023-05-10T13:15:40;14.00;;;12.53;;
4317;SDS011;2172;53.576;9.934;2023-05-10T13:18:08;14.30;;;12.90;;
4317;SDS011;2172;53.576;9.934;2023-05-10T13:20:35;13.10;;;11.80;;
4317;SDS011;2172;53.576;9.934;2023-05-10T13:23:03;14.67;;;13.33;;
4317;SDS011;2172;53.576;9.934;2023-05-10T13:25:31;14.00;;;12.60;;
4317;SDS011;2172;53.576;9.934;2023-05-10T13:27:59;15.27;;;13.63;;
4317;SDS011;2172;53.576;9.934;2023-05-10T13:30:26;15.47;;;13.87;;
4317;SDS011;2172;53.576;9.934;2023-05-10T13:32:56;13.87;;;12.60;;
4317;SDS011;2172;53.576;9.934;2023-05-10T13:35:23;15.57;;;13.17;;
4317;SDS011;2172;53.576;9.934;2023-05-10T13:37:51;15.30;;;13.93;;
4317;SDS011;2172;53.576;9.934;2023-05-10T13:40:22;13.40;;;12.20;;
4317;SDS011;2172;53.576;9.934;2023-05-10T13:42:49;15.60;;;14.07;;
4317;SDS011;2172;53.576;9.934;2023-05-10T13:45:18;13.77;;;12.63;;
4317;SDS011;2172;53.576;9.934;2023-05-10T13:47:45;14.10;;;12.80;;
4317;SDS011;2172;53.576;9.934;2023-05-10T13:50:14;15.40;;;13.90;;
4317;SDS011;2172;53.576;9.934;2023-05-10T13:52:43;18.60;;;17.03;;
4317;SDS011;2172;53.576;9.934;2023-05-10T13:55:10;17.27;;;15.60;;
4317;SDS011;2172;53.576;9.934;2023-05-10T13:57:38;14.50;;;13.27;;
4317;SDS011;2172;53.576;9.934;2023-05-10T14:00:07;14.30;;;13.00;;
4317;SDS011;2172;53.576;9.934;2023-05-10T14:02:35;15.40;;;14.00;;
4317;SDS011;2172;53.576;9.934;2023-05-10T14:05:03;15.50;;;14.00;;
4317;SDS011;2172;53.576;9.934;2023-05-10T14:07:33;13.97;;;12.70;;
4317;SDS011;2172;53.576;9.934;2023-05-10T14:10:00;13.90;;;12.60;;
4317;SDS011;2172;53.576;9.934;2023-05-10T14:12:28;14.00;;;12.70;;
4317;SDS011;2172;53.576;9.934;2023-05-10T14:14:56;13.70;;;12.40;;
4317;SDS011;2172;53.576;9.934;2023-05-10T14:17:23;14.50;;;13.10;;
4317;SDS011;2172;53.576;9.934;2023-05-10T14:19:52;14.13;;;12.83;;
4317;SDS011;2172;53.576;9.934;2023-05-10T14:22:19;12.97;;;11.87;;
4317;SDS011;2172;53.576;9.934;2023-05-10T14:24:49;14.13;;;12.60;;
4317;SDS011;2172;53.576;9.934;2023-05-10T14:27:16;12.70;;;11.57;;
4317;SDS011;2172;53.576;9.934;2023-05-10T14:29:44;13.87;;;12.67;;
4317;SDS011;2172;53.576;9.934;2023-05-10T14:32:13;12.57;;;11.47;;
4317;SDS011;2172;53.576;9.934;2023-05-10T14:34:41;12.17;;;11.07;;
4317;SDS011;2172;53.576;9.934;2023-05-10T14:37:09;12.00;;;10.90;;
4317;SDS011;2172;53.576;9.934;2023-05-10T14:39:37;11.47;;;10.47;;
4317;SDS011;2172;53.576;9.934;2023-05-10T14:42:06;10.80;;;9.77;;
4317;SDS011;2172;53.576;9.934;2023-05-10T14:44:34;12.03;;;10.93;;
4317;SDS011;2172;53.576;9.934;2023-05-10T14:47:02;11.50;;;10.40;;
4317;SDS011;2172;53.576;9.934;2023-05-10T14:49:30;11.80;;;10.53;;
4317;SDS011;2172;53.576;9.934;2023-05-10T14:51:57;15.80;;;12.77;;
4317;SDS011;2172;53.576;9.934;2023-05-10T14:54:25;13.10;;;11.80;;
4317;SDS011;2172;53.576;9.934;2023-05-10T14:56:53;11.40;;;10.40;;
4317;SDS011;2172;53.576;9.934;2023-05-10T14:59:22;11.40;;;10.30;;
4317;SDS011;2172;53.576;9.934;2023-05-10T15:01:50;11.80;;;10.70;;
4317;SDS011;2172;53.576;9.934;2023-05-10T15:04:17;12.07;;;11.00;;
4317;SDS011;2172;53.576;9.934;2023-05-10T15:06:46;12.13;;;11.00;;
4317;SDS011;2172;53.576;9.934;2023-05-10T15:09:14;11.70;;;10.67;;
4317;SDS011;2172;53.576;9.934;2023-05-10T15:11:42;12.27;;;11.10;;
4317;SDS011;2172;53.576;9.934;2023-05-10T15:14:10;12.00;;;10.90;;
4317;SDS011;2172;53.576;9.934;2023-05-10T15:16:39;11.93;;;10.93;;
4317;SDS011;2172;53.576;9.934;2023-05-10T15:19:07;11.70;;;10.63;;
4317;SDS011;2172;53.576;9.934;2023-05-10T15:21:35;12.30;;;9.83;;